AAL3214 TNCM-KMIA
Flight info
| Callsign | AAL3214 |
|---|---|
| Flight time | 2h 59m |
| Altitude | 34000 |
| Route | MODOR2 JUICE B520 STT RTE6 SJU DCT ACONY Y308 GMONI/N0456F360 Y308 MADIZ VIICE2 |
| Aircraft | A320/M-SDE3FGHIRWY/LB1 |
Departure
| Time | 2026-05-04 23:19 |
|---|---|
| Airport | Princess Juliana International Airport (TNCM) |
Arrival
| Time | 2026-05-05 02:18 |
|---|---|
| Airport | Miami International Airport (KMIA) |
| Time | Latitude | Longitude | Altitude | Speed | Heading |
|---|---|---|---|---|---|
| 2026-05-04 21:51 | 18.04351 | -63.11224 | 21 ft | 0 kts | 353° |
| 2026-05-04 23:09 | 18.04338 | -63.11222 | -6 ft | 4 kts | 349° |
| 2026-05-04 23:09 | 18.04312 | -63.11218 | 22 ft | 4 kts | 1° |
| 2026-05-04 23:09 | 18.04290 | -63.11226 | 21 ft | 4 kts | 55° |
| 2026-05-04 23:09 | 18.04280 | -63.11251 | 21 ft | 4 kts | 74° |
| 2026-05-04 23:10 | 18.04269 | -63.11276 | 25 ft | 4 kts | 57° |
| 2026-05-04 23:10 | 18.04253 | -63.11299 | 22 ft | 4 kts | 44° |
| 2026-05-04 23:10 | 18.04233 | -63.11314 | 21 ft | 4 kts | 17° |
| 2026-05-04 23:10 | 18.04227 | -63.11316 | 23 ft | 0 kts | 14° |
| 2026-05-04 23:14 | 18.04232 | -63.11317 | 21 ft | 0 kts | 348° |
| 2026-05-04 23:14 | 18.04237 | -63.11324 | 21 ft | 2 kts | 305° |
| 2026-05-04 23:15 | 18.04239 | -63.11344 | 21 ft | 4 kts | 271° |
| 2026-05-04 23:15 | 18.04236 | -63.11380 | 21 ft | 6 kts | 262° |
| 2026-05-04 23:15 | 18.04226 | -63.11444 | 22 ft | 10 kts | 261° |
| 2026-05-04 23:15 | 18.04193 | -63.11514 | 22 ft | 12 kts | 231° |
| 2026-05-04 23:16 | 18.04136 | -63.11586 | 21 ft | 14 kts | 230° |
| 2026-05-04 23:16 | 18.04074 | -63.11671 | 22 ft | 16 kts | 240° |
| 2026-05-04 23:16 | 18.04049 | -63.11791 | 21 ft | 18 kts | 263° |
| 2026-05-04 23:16 | 18.04015 | -63.11918 | 22 ft | 18 kts | 236° |
| 2026-05-04 23:17 | 18.03933 | -63.11942 | 24 ft | 8 kts | 121° |
| 2026-05-04 23:17 | 18.03945 | -63.11915 | 24 ft | 5 kts | 63° |
| 2026-05-04 23:17 | 18.03952 | -63.11887 | 22 ft | 0 kts | 82° |
| 2026-05-04 23:18 | 18.03963 | -63.11807 | 22 ft | 44 kts | 81° |
| 2026-05-04 23:18 | 18.04002 | -63.11501 | 22 ft | 95 kts | 83° |
| 2026-05-04 23:18 | 18.04080 | -63.10797 | 22 ft | 147 kts | 83° |
| 2026-05-04 23:19 | 18.04139 | -63.09731 | 356 ft | 165 kts | 96° |
| 2026-05-04 23:19 | 18.03922 | -63.08512 | 1159 ft | 165 kts | 111° |
| 2026-05-04 23:19 | 18.03165 | -63.07608 | 1858 ft | 180 kts | 154° |
| 2026-05-04 23:19 | 18.01839 | -63.07456 | 2402 ft | 209 kts | 180° |
| 2026-05-04 23:20 | 18.00320 | -63.07536 | 2995 ft | 232 kts | 180° |
| 2026-05-04 23:20 | 17.98625 | -63.07621 | 3390 ft | 253 kts | 180° |
| 2026-05-04 23:20 | 17.96842 | -63.07712 | 4140 ft | 260 kts | 179° |
| 2026-05-04 23:20 | 17.95017 | -63.07870 | 4938 ft | 266 kts | 189° |
| 2026-05-04 23:21 | 17.93286 | -63.08621 | 5697 ft | 277 kts | 213° |
| 2026-05-04 23:21 | 17.91988 | -63.10135 | 6490 ft | 286 kts | 241° |
| 2026-05-04 23:21 | 17.91508 | -63.12177 | 7182 ft | 294 kts | 271° |
| 2026-05-04 23:21 | 17.91994 | -63.14266 | 7923 ft | 297 kts | 292° |
| 2026-05-04 23:22 | 17.92806 | -63.16267 | 8724 ft | 299 kts | 292° |
| 2026-05-04 23:22 | 17.93625 | -63.18270 | 9488 ft | 300 kts | 292° |
| 2026-05-04 23:22 | 17.94444 | -63.20269 | 9925 ft | 301 kts | 292° |
| 2026-05-04 23:22 | 17.95265 | -63.22284 | 10046 ft | 301 kts | 292° |
| 2026-05-04 23:23 | 17.96130 | -63.24419 | 10144 ft | 325 kts | 292° |
| 2026-05-04 23:23 | 17.97039 | -63.26670 | 10331 ft | 343 kts | 292° |
| 2026-05-04 23:23 | 17.97969 | -63.28978 | 10818 ft | 350 kts | 292° |
| 2026-05-04 23:23 | 17.98924 | -63.31344 | 11382 ft | 354 kts | 292° |
| 2026-05-04 23:24 | 17.99890 | -63.33742 | 11936 ft | 358 kts | 292° |
| 2026-05-04 23:24 | 18.00861 | -63.36154 | 12506 ft | 361 kts | 292° |
| 2026-05-04 23:24 | 18.01840 | -63.38598 | 13110 ft | 364 kts | 292° |
| 2026-05-04 23:24 | 18.02822 | -63.41059 | 13667 ft | 367 kts | 292° |
| 2026-05-04 23:25 | 18.03813 | -63.43541 | 14157 ft | 371 kts | 292° |
| 2026-05-04 23:25 | 18.04813 | -63.46034 | 14706 ft | 371 kts | 292° |
| 2026-05-04 23:25 | 18.05819 | -63.48543 | 15266 ft | 372 kts | 292° |
| 2026-05-04 23:25 | 18.06825 | -63.51044 | 15863 ft | 371 kts | 292° |
| 2026-05-04 23:26 | 18.07827 | -63.53541 | 16445 ft | 371 kts | 292° |
| 2026-05-04 23:26 | 18.08833 | -63.56051 | 17053 ft | 371 kts | 292° |
| 2026-05-04 23:26 | 18.09833 | -63.58551 | 17645 ft | 371 kts | 293° |
| 2026-05-04 23:26 | 18.10838 | -63.61057 | 18116 ft | 375 kts | 293° |
| 2026-05-04 23:27 | 18.11857 | -63.63599 | 18576 ft | 378 kts | 292° |
| 2026-05-04 23:27 | 18.12834 | -63.66178 | 19000 ft | 382 kts | 288° |
| 2026-05-04 23:27 | 18.13472 | -63.68896 | 19416 ft | 386 kts | 280° |
| 2026-05-04 23:27 | 18.13943 | -63.71694 | 19801 ft | 391 kts | 280° |
| 2026-05-04 23:28 | 18.14414 | -63.74515 | 20258 ft | 393 kts | 280° |
| 2026-05-04 23:28 | 18.14889 | -63.77364 | 20656 ft | 398 kts | 279° |
| 2026-05-04 23:28 | 18.15372 | -63.80243 | 21063 ft | 402 kts | 279° |
| 2026-05-04 23:28 | 18.15864 | -63.83158 | 21453 ft | 407 kts | 279° |
| 2026-05-04 23:29 | 18.16361 | -63.86105 | 21834 ft | 411 kts | 279° |
| 2026-05-04 23:29 | 18.16863 | -63.89088 | 22208 ft | 416 kts | 279° |
| 2026-05-04 23:29 | 18.17368 | -63.92099 | 22598 ft | 420 kts | 279° |
| 2026-05-04 23:29 | 18.17877 | -63.95141 | 22971 ft | 425 kts | 279° |
| 2026-05-04 23:30 | 18.18392 | -63.98212 | 23315 ft | 429 kts | 279° |
| 2026-05-04 23:30 | 18.18914 | -64.01318 | 23672 ft | 433 kts | 279° |
| 2026-05-04 23:30 | 18.19439 | -64.04443 | 23968 ft | 436 kts | 279° |
| 2026-05-04 23:30 | 18.19965 | -64.07586 | 24342 ft | 437 kts | 279° |
| 2026-05-04 23:31 | 18.20493 | -64.10746 | 24670 ft | 439 kts | 279° |
| 2026-05-04 23:31 | 18.21017 | -64.13907 | 25054 ft | 439 kts | 279° |
| 2026-05-04 23:31 | 18.21532 | -64.17025 | 25382 ft | 440 kts | 279° |
| 2026-05-04 23:31 | 18.22059 | -64.20212 | 25700 ft | 442 kts | 279° |
| 2026-05-04 23:32 | 18.22590 | -64.23401 | 26023 ft | 444 kts | 280° |
| 2026-05-04 23:32 | 18.23127 | -64.26608 | 26330 ft | 445 kts | 280° |
| 2026-05-04 23:32 | 18.23662 | -64.29816 | 26665 ft | 446 kts | 280° |
| 2026-05-04 23:32 | 18.24200 | -64.33036 | 26977 ft | 447 kts | 280° |
| 2026-05-04 23:33 | 18.24741 | -64.36268 | 27289 ft | 448 kts | 280° |
| 2026-05-04 23:33 | 18.25284 | -64.39492 | 27615 ft | 449 kts | 281° |
| 2026-05-04 23:33 | 18.25829 | -64.42735 | 27919 ft | 450 kts | 281° |
| 2026-05-04 23:33 | 18.26368 | -64.45983 | 28243 ft | 451 kts | 281° |
| 2026-05-04 23:34 | 18.26891 | -64.49254 | 28544 ft | 453 kts | 280° |
| 2026-05-04 23:34 | 18.27417 | -64.52534 | 28849 ft | 454 kts | 280° |
| 2026-05-04 23:34 | 18.27946 | -64.55772 | 29131 ft | 456 kts | 281° |
| 2026-05-04 23:34 | 18.28498 | -64.59103 | 29467 ft | 457 kts | 282° |
| 2026-05-04 23:35 | 18.29040 | -64.62353 | 29911 ft | 455 kts | 281° |
| 2026-05-04 23:35 | 18.29583 | -64.65621 | 30317 ft | 453 kts | 281° |
| 2026-05-04 23:35 | 18.30122 | -64.68884 | 30636 ft | 453 kts | 281° |
| 2026-05-04 23:35 | 18.30661 | -64.72151 | 30963 ft | 452 kts | 281° |
| 2026-05-04 23:36 | 18.31196 | -64.75406 | 31311 ft | 451 kts | 281° |
| 2026-05-04 23:36 | 18.31728 | -64.78653 | 31659 ft | 450 kts | 281° |
| 2026-05-04 23:36 | 18.32257 | -64.81895 | 32061 ft | 448 kts | 281° |
| 2026-05-04 23:36 | 18.32782 | -64.85121 | 32446 ft | 446 kts | 281° |
| 2026-05-04 23:37 | 18.33300 | -64.88336 | 32828 ft | 445 kts | 280° |
| 2026-05-04 23:37 | 18.33817 | -64.91549 | 33205 ft | 443 kts | 280° |
| 2026-05-04 23:37 | 18.34331 | -64.94740 | 33595 ft | 442 kts | 280° |
| 2026-05-04 23:37 | 18.34846 | -64.97928 | 33939 ft | 442 kts | 279° |
| 2026-05-04 23:38 | 18.34841 | -65.04381 | 34045 ft | 445 kts | 260° |
| 2026-05-04 23:38 | 18.33102 | -65.10645 | 34046 ft | 447 kts | 253° |
| 2026-05-04 23:39 | 18.31213 | -65.16840 | 34050 ft | 447 kts | 253° |
| 2026-05-04 23:39 | 18.29839 | -65.23187 | 34053 ft | 445 kts | 267° |
| 2026-05-04 23:40 | 18.30437 | -65.29650 | 34060 ft | 445 kts | 282° |
| 2026-05-04 23:40 | 18.31763 | -65.36003 | 34069 ft | 445 kts | 282° |
| 2026-05-04 23:41 | 18.33075 | -65.42365 | 34077 ft | 444 kts | 282° |
| 2026-05-04 23:41 | 18.34378 | -65.48714 | 34080 ft | 444 kts | 282° |
| 2026-05-04 23:42 | 18.35674 | -65.55043 | 34081 ft | 444 kts | 282° |
| 2026-05-04 23:42 | 18.36976 | -65.61400 | 34082 ft | 444 kts | 282° |
| 2026-05-04 23:43 | 18.38288 | -65.67792 | 34086 ft | 444 kts | 282° |
| 2026-05-04 23:43 | 18.39589 | -65.74139 | 34081 ft | 443 kts | 282° |
| 2026-05-04 23:44 | 18.40877 | -65.80433 | 34079 ft | 443 kts | 282° |
| 2026-05-04 23:44 | 18.42167 | -65.86771 | 34072 ft | 442 kts | 282° |
| 2026-05-04 23:45 | 18.43447 | -65.93109 | 34074 ft | 442 kts | 282° |
| 2026-05-04 23:45 | 18.45652 | -65.99134 | 34078 ft | 444 kts | 301° |
| 2026-05-04 23:46 | 18.49665 | -66.04052 | 34074 ft | 446 kts | 315° |
| 2026-05-04 23:46 | 18.54150 | -66.08566 | 34068 ft | 446 kts | 314° |
| 2026-05-04 23:47 | 18.58632 | -66.13094 | 34066 ft | 446 kts | 314° |
| 2026-05-04 23:47 | 18.63105 | -66.17628 | 34065 ft | 446 kts | 314° |
| 2026-05-04 23:48 | 18.67566 | -66.22157 | 34062 ft | 446 kts | 314° |
| 2026-05-04 23:48 | 18.72042 | -66.26697 | 34062 ft | 446 kts | 314° |
| 2026-05-04 23:49 | 18.76497 | -66.31227 | 34068 ft | 446 kts | 314° |
| 2026-05-04 23:49 | 18.80945 | -66.35741 | 34066 ft | 446 kts | 314° |
| 2026-05-04 23:50 | 18.85409 | -66.40276 | 34065 ft | 445 kts | 314° |
| 2026-05-04 23:50 | 18.89871 | -66.44820 | 34079 ft | 445 kts | 314° |
| 2026-05-04 23:51 | 18.93992 | -66.49664 | 34074 ft | 442 kts | 302° |
| 2026-05-04 23:51 | 18.96897 | -66.54151 | 34071 ft | 442 kts | 303° |
| 2026-05-04 23:52 | 19.00384 | -66.59524 | 34069 ft | 442 kts | 303° |
| 2026-05-04 23:52 | 19.03865 | -66.64887 | 34068 ft | 443 kts | 302° |
| 2026-05-04 23:53 | 19.07320 | -66.70220 | 34077 ft | 443 kts | 303° |
| 2026-05-04 23:53 | 19.10821 | -66.75622 | 34075 ft | 443 kts | 303° |
| 2026-05-04 23:54 | 19.14295 | -66.81006 | 34071 ft | 443 kts | 302° |
| 2026-05-04 23:54 | 19.17743 | -66.86350 | 34069 ft | 443 kts | 303° |
| 2026-05-04 23:55 | 19.21242 | -66.91762 | 34076 ft | 443 kts | 303° |
| 2026-05-04 23:56 | 19.26421 | -66.99802 | 34073 ft | 443 kts | 302° |
| 2026-05-04 23:56 | 19.29890 | -67.05198 | 34083 ft | 443 kts | 302° |
| 2026-05-04 23:57 | 19.33366 | -67.10584 | 34087 ft | 443 kts | 302° |
| 2026-05-04 23:57 | 19.36841 | -67.15985 | 34086 ft | 443 kts | 302° |
| 2026-05-04 23:58 | 19.40300 | -67.21376 | 34086 ft | 443 kts | 302° |
| 2026-05-04 23:58 | 19.43761 | -67.26762 | 34090 ft | 442 kts | 302° |
| 2026-05-04 23:59 | 19.47212 | -67.32143 | 34086 ft | 441 kts | 302° |
| 2026-05-04 23:59 | 19.50660 | -67.37530 | 34085 ft | 441 kts | 302° |
| 2026-05-05 00:00 | 19.54100 | -67.42907 | 34084 ft | 440 kts | 302° |
| 2026-05-05 00:00 | 19.57540 | -67.48287 | 34083 ft | 440 kts | 302° |
| 2026-05-05 00:01 | 19.60972 | -67.53663 | 34085 ft | 440 kts | 302° |
| 2026-05-05 00:01 | 19.64412 | -67.59048 | 34091 ft | 440 kts | 302° |
| 2026-05-05 00:02 | 19.67819 | -67.64388 | 34102 ft | 439 kts | 302° |
| 2026-05-05 00:02 | 19.71233 | -67.69766 | 34096 ft | 439 kts | 302° |
| 2026-05-05 00:03 | 19.74633 | -67.75133 | 34093 ft | 438 kts | 302° |
| 2026-05-05 00:03 | 19.78043 | -67.80487 | 34089 ft | 437 kts | 302° |
| 2026-05-05 00:04 | 19.81451 | -67.85841 | 34086 ft | 437 kts | 302° |
| 2026-05-05 00:04 | 19.84845 | -67.91198 | 34083 ft | 437 kts | 302° |
| 2026-05-05 00:05 | 19.88235 | -67.96555 | 34082 ft | 437 kts | 302° |
| 2026-05-05 00:05 | 19.91636 | -68.01921 | 34081 ft | 437 kts | 302° |
| 2026-05-05 00:06 | 19.95040 | -68.07285 | 34082 ft | 437 kts | 302° |
| 2026-05-05 00:06 | 19.98440 | -68.12650 | 34083 ft | 437 kts | 302° |
| 2026-05-05 00:07 | 20.01834 | -68.18025 | 34086 ft | 437 kts | 301° |
| 2026-05-05 00:07 | 20.05217 | -68.23401 | 34088 ft | 437 kts | 301° |
| 2026-05-05 00:08 | 20.08577 | -68.28735 | 34088 ft | 437 kts | 301° |
| 2026-05-05 00:08 | 20.11964 | -68.34098 | 34089 ft | 437 kts | 301° |
| 2026-05-05 00:09 | 20.15339 | -68.39456 | 34087 ft | 437 kts | 301° |
| 2026-05-05 00:09 | 20.18721 | -68.44836 | 34085 ft | 436 kts | 301° |
| 2026-05-05 00:10 | 20.22101 | -68.50207 | 34078 ft | 436 kts | 301° |
| 2026-05-05 00:10 | 20.25470 | -68.55568 | 34086 ft | 436 kts | 300° |
| 2026-05-05 00:11 | 20.28621 | -68.61068 | 34083 ft | 434 kts | 297° |
| 2026-05-05 00:11 | 20.31581 | -68.66669 | 34082 ft | 433 kts | 297° |
| 2026-05-05 00:12 | 20.34543 | -68.72256 | 34085 ft | 433 kts | 297° |
| 2026-05-05 00:12 | 20.37541 | -68.77780 | 34088 ft | 433 kts | 298° |
| 2026-05-05 00:13 | 20.40588 | -68.83359 | 34076 ft | 433 kts | 298° |
| 2026-05-05 00:13 | 20.43615 | -68.88911 | 34076 ft | 433 kts | 297° |
| 2026-05-05 00:14 | 20.46636 | -68.94454 | 34088 ft | 432 kts | 297° |
| 2026-05-05 00:14 | 20.49642 | -69.00006 | 34085 ft | 431 kts | 297° |
| 2026-05-05 00:15 | 20.52622 | -69.05514 | 34083 ft | 431 kts | 297° |
| 2026-05-05 00:15 | 20.55636 | -69.11086 | 34077 ft | 431 kts | 297° |
| 2026-05-05 00:16 | 20.58628 | -69.16619 | 34073 ft | 431 kts | 297° |
| 2026-05-05 00:16 | 20.61626 | -69.22149 | 34080 ft | 430 kts | 297° |
| 2026-05-05 00:17 | 20.64608 | -69.27674 | 34080 ft | 429 kts | 297° |
| 2026-05-05 00:17 | 20.67561 | -69.33153 | 34076 ft | 429 kts | 297° |
| 2026-05-05 00:18 | 20.70531 | -69.38667 | 34064 ft | 428 kts | 297° |
| 2026-05-05 00:18 | 20.73495 | -69.44182 | 34062 ft | 428 kts | 297° |
| 2026-05-05 00:19 | 20.76460 | -69.49694 | 34067 ft | 428 kts | 297° |
| 2026-05-05 00:19 | 20.79430 | -69.55230 | 34072 ft | 428 kts | 297° |
| 2026-05-05 00:20 | 20.82387 | -69.60737 | 34076 ft | 427 kts | 297° |
| 2026-05-05 00:20 | 20.85337 | -69.66237 | 34076 ft | 426 kts | 297° |
| 2026-05-05 00:21 | 20.88283 | -69.71730 | 34092 ft | 425 kts | 297° |
| 2026-05-05 00:21 | 20.91213 | -69.77215 | 34075 ft | 424 kts | 297° |
| 2026-05-05 00:22 | 20.94136 | -69.82694 | 34077 ft | 424 kts | 297° |
| 2026-05-05 00:22 | 20.97055 | -69.88130 | 34081 ft | 423 kts | 296° |
| 2026-05-05 00:23 | 20.99977 | -69.93585 | 34070 ft | 422 kts | 296° |
| 2026-05-05 00:23 | 21.02885 | -69.99037 | 34069 ft | 422 kts | 296° |
| 2026-05-05 00:24 | 21.05786 | -70.04492 | 34069 ft | 421 kts | 296° |
| 2026-05-05 00:24 | 21.08684 | -70.09945 | 34065 ft | 421 kts | 296° |
| 2026-05-05 00:25 | 21.11584 | -70.15404 | 34062 ft | 421 kts | 296° |
| 2026-05-05 00:25 | 21.14479 | -70.20857 | 34068 ft | 421 kts | 296° |
| 2026-05-05 00:26 | 21.17375 | -70.26321 | 34065 ft | 421 kts | 296° |
| 2026-05-05 00:26 | 21.20262 | -70.31779 | 34063 ft | 421 kts | 296° |
| 2026-05-05 00:27 | 21.23148 | -70.37225 | 34065 ft | 421 kts | 296° |
| 2026-05-05 00:27 | 21.26029 | -70.42682 | 34062 ft | 420 kts | 296° |
| 2026-05-05 00:28 | 21.28915 | -70.48148 | 34076 ft | 420 kts | 296° |
| 2026-05-05 00:28 | 21.31790 | -70.53602 | 34070 ft | 420 kts | 296° |
| 2026-05-05 00:29 | 21.34669 | -70.59065 | 34073 ft | 420 kts | 295° |
| 2026-05-05 00:29 | 21.37527 | -70.64490 | 34068 ft | 420 kts | 295° |
| 2026-05-05 00:30 | 21.40394 | -70.69953 | 34068 ft | 420 kts | 295° |
| 2026-05-05 00:30 | 21.43268 | -70.75415 | 34066 ft | 420 kts | 295° |
| 2026-05-05 00:31 | 21.46140 | -70.80872 | 34062 ft | 419 kts | 295° |
| 2026-05-05 00:31 | 21.49000 | -70.86323 | 34060 ft | 419 kts | 295° |
| 2026-05-05 00:32 | 21.51846 | -70.91779 | 34062 ft | 419 kts | 295° |
| 2026-05-05 00:32 | 21.54699 | -70.97227 | 34063 ft | 418 kts | 295° |
| 2026-05-05 00:33 | 21.57552 | -71.02677 | 34063 ft | 418 kts | 295° |
| 2026-05-05 00:33 | 21.60316 | -71.08152 | 34063 ft | 417 kts | 294° |
| 2026-05-05 00:34 | 21.62526 | -71.12749 | 34057 ft | 417 kts | 293° |
| 2026-05-05 00:34 | 21.65186 | -71.18299 | 34062 ft | 416 kts | 293° |
| 2026-05-05 00:35 | 21.67856 | -71.23815 | 34051 ft | 416 kts | 294° |
| 2026-05-05 00:35 | 21.70540 | -71.29328 | 34070 ft | 416 kts | 293° |
| 2026-05-05 00:36 | 21.73227 | -71.34846 | 34053 ft | 415 kts | 293° |
| 2026-05-05 00:36 | 21.75893 | -71.40352 | 34049 ft | 415 kts | 293° |
| 2026-05-05 00:37 | 21.78555 | -71.45852 | 34048 ft | 415 kts | 293° |
| 2026-05-05 00:37 | 21.81217 | -71.51353 | 34052 ft | 414 kts | 293° |
| 2026-05-05 00:38 | 21.83882 | -71.56857 | 34056 ft | 414 kts | 293° |
| 2026-05-05 00:38 | 21.86523 | -71.62330 | 34061 ft | 414 kts | 293° |
| 2026-05-05 00:39 | 21.89185 | -71.67865 | 34045 ft | 414 kts | 293° |
| 2026-05-05 00:39 | 21.91821 | -71.73330 | 34045 ft | 414 kts | 293° |
| 2026-05-05 00:40 | 21.94466 | -71.78828 | 34044 ft | 413 kts | 293° |
| 2026-05-05 00:40 | 21.97117 | -71.84332 | 34057 ft | 414 kts | 293° |
| 2026-05-05 00:41 | 21.99753 | -71.89827 | 34044 ft | 413 kts | 293° |
| 2026-05-05 00:41 | 22.02393 | -71.95343 | 34053 ft | 413 kts | 293° |
| 2026-05-05 00:42 | 22.05033 | -72.00849 | 34053 ft | 413 kts | 293° |
| 2026-05-05 00:42 | 22.07673 | -72.06349 | 34053 ft | 413 kts | 292° |
| 2026-05-05 00:43 | 22.10309 | -72.11860 | 34072 ft | 413 kts | 292° |
| 2026-05-05 00:43 | 22.12939 | -72.17372 | 34062 ft | 413 kts | 292° |
| 2026-05-05 00:44 | 22.15565 | -72.22890 | 34058 ft | 413 kts | 292° |
| 2026-05-05 00:44 | 22.18174 | -72.28365 | 34060 ft | 413 kts | 292° |
| 2026-05-05 00:45 | 22.20800 | -72.33875 | 34060 ft | 413 kts | 292° |
| 2026-05-05 00:45 | 22.23419 | -72.39374 | 34056 ft | 412 kts | 292° |
| 2026-05-05 00:46 | 22.26034 | -72.44886 | 34054 ft | 412 kts | 292° |
| 2026-05-05 00:46 | 22.28646 | -72.50398 | 34054 ft | 412 kts | 292° |
| 2026-05-05 00:47 | 22.31257 | -72.55912 | 34056 ft | 412 kts | 292° |
| 2026-05-05 00:47 | 22.33871 | -72.61429 | 34068 ft | 412 kts | 292° |
| 2026-05-05 00:48 | 22.36470 | -72.66939 | 34061 ft | 412 kts | 291° |
| 2026-05-05 00:48 | 22.39065 | -72.72455 | 34059 ft | 411 kts | 292° |
| 2026-05-05 00:49 | 22.41663 | -72.77959 | 34056 ft | 411 kts | 292° |
| 2026-05-05 00:49 | 22.44241 | -72.83424 | 34054 ft | 411 kts | 292° |
| 2026-05-05 00:50 | 22.46830 | -72.88920 | 34056 ft | 410 kts | 291° |
| 2026-05-05 00:50 | 22.49414 | -72.94417 | 34054 ft | 410 kts | 291° |
| 2026-05-05 00:51 | 22.51996 | -72.99923 | 34072 ft | 410 kts | 291° |
| 2026-05-05 00:51 | 22.54575 | -73.05416 | 34064 ft | 409 kts | 291° |
| 2026-05-05 00:52 | 22.57153 | -73.10903 | 34061 ft | 409 kts | 291° |
| 2026-05-05 00:52 | 22.59717 | -73.16395 | 34056 ft | 408 kts | 291° |
| 2026-05-05 00:53 | 22.62261 | -73.21859 | 34049 ft | 408 kts | 291° |
| 2026-05-05 00:53 | 22.64808 | -73.27312 | 34048 ft | 408 kts | 291° |
| 2026-05-05 00:54 | 22.67373 | -73.32796 | 34056 ft | 408 kts | 291° |
| 2026-05-05 00:54 | 22.69923 | -73.38272 | 34054 ft | 408 kts | 291° |
| 2026-05-05 00:55 | 22.72477 | -73.43755 | 34052 ft | 407 kts | 291° |
| 2026-05-05 00:55 | 22.75027 | -73.49229 | 34050 ft | 407 kts | 291° |
| 2026-05-05 00:56 | 22.77575 | -73.54718 | 34045 ft | 407 kts | 291° |
| 2026-05-05 00:56 | 22.80117 | -73.60198 | 34044 ft | 407 kts | 291° |
| 2026-05-05 00:57 | 22.82653 | -73.65677 | 34047 ft | 407 kts | 291° |
| 2026-05-05 00:57 | 22.85187 | -73.71167 | 34045 ft | 407 kts | 291° |
| 2026-05-05 00:58 | 22.87715 | -73.76642 | 34040 ft | 406 kts | 291° |
| 2026-05-05 00:58 | 22.90233 | -73.82093 | 34036 ft | 406 kts | 291° |
| 2026-05-05 00:59 | 22.92762 | -73.87578 | 34061 ft | 406 kts | 291° |
| 2026-05-05 00:59 | 22.95290 | -73.93052 | 34050 ft | 405 kts | 291° |
| 2026-05-05 01:00 | 22.97805 | -73.98517 | 34045 ft | 405 kts | 291° |
| 2026-05-05 01:00 | 23.00317 | -74.03991 | 34051 ft | 405 kts | 291° |
| 2026-05-05 01:01 | 23.02825 | -74.09456 | 34045 ft | 405 kts | 291° |
| 2026-05-05 01:01 | 23.05344 | -74.14937 | 34040 ft | 405 kts | 291° |
| 2026-05-05 01:02 | 23.07852 | -74.20418 | 34041 ft | 405 kts | 291° |
| 2026-05-05 01:02 | 23.10359 | -74.25898 | 34039 ft | 405 kts | 291° |
| 2026-05-05 01:03 | 23.12862 | -74.31380 | 34037 ft | 405 kts | 291° |
| 2026-05-05 01:03 | 23.15368 | -74.36864 | 34042 ft | 405 kts | 291° |
| 2026-05-05 01:04 | 23.17864 | -74.42331 | 34024 ft | 407 kts | 291° |
| 2026-05-05 01:04 | 23.21639 | -74.50614 | 34017 ft | 408 kts | 291° |
| 2026-05-05 01:05 | 23.24149 | -74.56139 | 34026 ft | 408 kts | 291° |
| 2026-05-05 01:05 | 23.26663 | -74.61680 | 34025 ft | 408 kts | 291° |
| 2026-05-05 01:06 | 23.29177 | -74.67226 | 34027 ft | 408 kts | 291° |
| 2026-05-05 01:06 | 23.31691 | -74.72765 | 34053 ft | 408 kts | 291° |
| 2026-05-05 01:07 | 23.34200 | -74.78298 | 34051 ft | 408 kts | 291° |
| 2026-05-05 01:07 | 23.36703 | -74.83833 | 34039 ft | 407 kts | 291° |
| 2026-05-05 01:08 | 23.39183 | -74.89372 | 34034 ft | 405 kts | 288° |
| 2026-05-05 01:08 | 23.41016 | -74.95129 | 34035 ft | 402 kts | 284° |
| 2026-05-05 01:09 | 23.42772 | -75.00907 | 34035 ft | 402 kts | 284° |
| 2026-05-05 01:09 | 23.44525 | -75.06677 | 34043 ft | 402 kts | 283° |
| 2026-05-05 01:10 | 23.46281 | -75.12450 | 34042 ft | 401 kts | 283° |
| 2026-05-05 01:10 | 23.48022 | -75.18165 | 34043 ft | 400 kts | 283° |
| 2026-05-05 01:11 | 23.49783 | -75.23953 | 34042 ft | 400 kts | 283° |
| 2026-05-05 01:11 | 23.51513 | -75.29661 | 34041 ft | 399 kts | 283° |
| 2026-05-05 01:12 | 23.53248 | -75.35417 | 34038 ft | 399 kts | 283° |
| 2026-05-05 01:12 | 23.54985 | -75.41163 | 34034 ft | 399 kts | 283° |
| 2026-05-05 01:13 | 23.56721 | -75.46911 | 34042 ft | 399 kts | 283° |
| 2026-05-05 01:13 | 23.58443 | -75.52651 | 34042 ft | 398 kts | 283° |
| 2026-05-05 01:14 | 23.60167 | -75.58388 | 34041 ft | 398 kts | 283° |
| 2026-05-05 01:14 | 23.61893 | -75.64130 | 34030 ft | 398 kts | 283° |
| 2026-05-05 01:15 | 23.63609 | -75.69855 | 34032 ft | 398 kts | 283° |
| 2026-05-05 01:15 | 23.65332 | -75.75591 | 34025 ft | 398 kts | 283° |
| 2026-05-05 01:16 | 23.67047 | -75.81323 | 34029 ft | 398 kts | 283° |
| 2026-05-05 01:16 | 23.68756 | -75.87061 | 34020 ft | 398 kts | 283° |
| 2026-05-05 01:17 | 23.70472 | -75.92809 | 34020 ft | 398 kts | 283° |
| 2026-05-05 01:17 | 23.72186 | -75.98562 | 34019 ft | 398 kts | 283° |
| 2026-05-05 01:18 | 23.73888 | -76.04282 | 34019 ft | 398 kts | 283° |
| 2026-05-05 01:18 | 23.75592 | -76.10030 | 34049 ft | 398 kts | 283° |
| 2026-05-05 01:19 | 23.77299 | -76.15788 | 34050 ft | 398 kts | 282° |
| 2026-05-05 01:19 | 23.78995 | -76.21523 | 34046 ft | 397 kts | 282° |
| 2026-05-05 01:20 | 23.80688 | -76.27267 | 34040 ft | 397 kts | 282° |
| 2026-05-05 01:20 | 23.82379 | -76.32996 | 34036 ft | 396 kts | 282° |
| 2026-05-05 01:21 | 23.83793 | -76.37792 | 34028 ft | 396 kts | 282° |
| 2026-05-05 01:21 | 23.85480 | -76.43519 | 34026 ft | 396 kts | 282° |
| 2026-05-05 01:22 | 23.87164 | -76.49258 | 34021 ft | 396 kts | 282° |
| 2026-05-05 01:22 | 23.88829 | -76.54942 | 34029 ft | 396 kts | 282° |
| 2026-05-05 01:23 | 23.90507 | -76.60668 | 34026 ft | 396 kts | 282° |
| 2026-05-05 01:23 | 23.92188 | -76.66398 | 34023 ft | 396 kts | 282° |
| 2026-05-05 01:24 | 23.93883 | -76.72120 | 34024 ft | 396 kts | 282° |
| 2026-05-05 01:24 | 23.95566 | -76.77844 | 34024 ft | 396 kts | 282° |
| 2026-05-05 01:25 | 23.97233 | -76.83583 | 34021 ft | 395 kts | 282° |
| 2026-05-05 01:25 | 23.98893 | -76.89314 | 34025 ft | 395 kts | 282° |
| 2026-05-05 01:26 | 24.00555 | -76.95059 | 34021 ft | 395 kts | 282° |
| 2026-05-05 01:26 | 24.02205 | -77.00756 | 34022 ft | 395 kts | 282° |
| 2026-05-05 01:27 | 24.03860 | -77.06490 | 34020 ft | 395 kts | 282° |
| 2026-05-05 01:27 | 24.05516 | -77.12225 | 34019 ft | 395 kts | 282° |
| 2026-05-05 01:28 | 24.07169 | -77.17965 | 34018 ft | 395 kts | 282° |
| 2026-05-05 01:28 | 24.08825 | -77.23703 | 34022 ft | 395 kts | 282° |
| 2026-05-05 01:29 | 24.10476 | -77.29439 | 34024 ft | 395 kts | 282° |
| 2026-05-05 01:29 | 24.12121 | -77.35171 | 34023 ft | 395 kts | 282° |
| 2026-05-05 01:30 | 24.13765 | -77.40903 | 34020 ft | 394 kts | 282° |
| 2026-05-05 01:30 | 24.15408 | -77.46633 | 34025 ft | 394 kts | 282° |
| 2026-05-05 01:31 | 24.17043 | -77.52360 | 34019 ft | 394 kts | 282° |
| 2026-05-05 01:31 | 24.18681 | -77.58097 | 34019 ft | 394 kts | 282° |
| 2026-05-05 01:32 | 24.20315 | -77.63829 | 34030 ft | 393 kts | 282° |
| 2026-05-05 01:32 | 24.21933 | -77.69544 | 34028 ft | 392 kts | 281° |
| 2026-05-05 01:33 | 24.23553 | -77.75244 | 34029 ft | 392 kts | 282° |
| 2026-05-05 01:33 | 24.25172 | -77.80945 | 34023 ft | 391 kts | 281° |
| 2026-05-05 01:34 | 24.26855 | -77.86623 | 34021 ft | 395 kts | 287° |
| 2026-05-05 01:34 | 24.29744 | -77.91852 | 34024 ft | 404 kts | 296° |
| 2026-05-05 01:35 | 24.32896 | -77.96957 | 34031 ft | 404 kts | 297° |
| 2026-05-05 01:35 | 24.36041 | -78.02058 | 34029 ft | 404 kts | 297° |
| 2026-05-05 01:36 | 24.39178 | -78.07166 | 34030 ft | 403 kts | 296° |
| 2026-05-05 01:36 | 24.42272 | -78.12230 | 34026 ft | 403 kts | 296° |
| 2026-05-05 01:37 | 24.45389 | -78.17344 | 34022 ft | 403 kts | 296° |
| 2026-05-05 01:37 | 24.48499 | -78.22446 | 34022 ft | 402 kts | 296° |
| 2026-05-05 01:38 | 24.51619 | -78.27551 | 34018 ft | 402 kts | 296° |
| 2026-05-05 01:38 | 24.54744 | -78.32657 | 34018 ft | 402 kts | 296° |
| 2026-05-05 01:39 | 24.57860 | -78.37755 | 34032 ft | 401 kts | 297° |
| 2026-05-05 01:39 | 24.60969 | -78.42846 | 34026 ft | 400 kts | 296° |
| 2026-05-05 01:40 | 24.64062 | -78.47936 | 34023 ft | 400 kts | 296° |
| 2026-05-05 01:40 | 24.67152 | -78.53025 | 34019 ft | 400 kts | 296° |
| 2026-05-05 01:41 | 24.70241 | -78.58105 | 34018 ft | 400 kts | 296° |
| 2026-05-05 01:41 | 24.73312 | -78.63165 | 34020 ft | 400 kts | 296° |
| 2026-05-05 01:42 | 24.76395 | -78.68246 | 34022 ft | 400 kts | 297° |
| 2026-05-05 01:42 | 24.79476 | -78.73330 | 34018 ft | 399 kts | 297° |
| 2026-05-05 01:43 | 24.82558 | -78.78414 | 34022 ft | 399 kts | 297° |
| 2026-05-05 01:43 | 24.85623 | -78.83493 | 34020 ft | 398 kts | 297° |
| 2026-05-05 01:44 | 24.88698 | -78.88585 | 34001 ft | 399 kts | 297° |
| 2026-05-05 01:44 | 24.91787 | -78.93684 | 34019 ft | 402 kts | 297° |
| 2026-05-05 01:45 | 24.94891 | -78.98821 | 34005 ft | 403 kts | 297° |
| 2026-05-05 01:45 | 24.97993 | -79.03979 | 34000 ft | 404 kts | 297° |
| 2026-05-05 01:46 | 25.01082 | -79.09114 | 33650 ft | 403 kts | 298° |
| 2026-05-05 01:46 | 25.02620 | -79.11669 | 33132 ft | 398 kts | 298° |
| 2026-05-05 01:46 | 25.04145 | -79.14200 | 32627 ft | 394 kts | 298° |
| 2026-05-05 01:47 | 25.05651 | -79.16705 | 32123 ft | 390 kts | 298° |
| 2026-05-05 01:47 | 25.07140 | -79.19186 | 31633 ft | 386 kts | 298° |
| 2026-05-05 01:47 | 25.08610 | -79.21642 | 31152 ft | 383 kts | 298° |
| 2026-05-05 01:47 | 25.10073 | -79.24091 | 30672 ft | 379 kts | 298° |
| 2026-05-05 01:48 | 25.11519 | -79.26511 | 30209 ft | 376 kts | 299° |
| 2026-05-05 01:48 | 25.12954 | -79.28908 | 29688 ft | 373 kts | 299° |
| 2026-05-05 01:48 | 25.14376 | -79.31285 | 29150 ft | 370 kts | 299° |
| 2026-05-05 01:48 | 25.15793 | -79.33651 | 28611 ft | 367 kts | 299° |
| 2026-05-05 01:49 | 25.17195 | -79.35993 | 28104 ft | 365 kts | 299° |
| 2026-05-05 01:49 | 25.18587 | -79.38325 | 27594 ft | 363 kts | 299° |
| 2026-05-05 01:49 | 25.19970 | -79.40647 | 27092 ft | 361 kts | 299° |
| 2026-05-05 01:49 | 25.21348 | -79.42962 | 26605 ft | 360 kts | 300° |
| 2026-05-05 01:50 | 25.22726 | -79.45271 | 26123 ft | 359 kts | 299° |
| 2026-05-05 01:50 | 25.24080 | -79.47541 | 25655 ft | 358 kts | 299° |
| 2026-05-05 01:50 | 25.25468 | -79.49865 | 25176 ft | 358 kts | 300° |
| 2026-05-05 01:50 | 25.26816 | -79.52127 | 24768 ft | 357 kts | 299° |
| 2026-05-05 01:51 | 25.28202 | -79.54459 | 24308 ft | 357 kts | 299° |
| 2026-05-05 01:51 | 25.29545 | -79.56720 | 23870 ft | 357 kts | 299° |
| 2026-05-05 01:51 | 25.30928 | -79.59046 | 23391 ft | 356 kts | 299° |
| 2026-05-05 01:51 | 25.32272 | -79.61307 | 22874 ft | 355 kts | 299° |
| 2026-05-05 01:52 | 25.33625 | -79.63584 | 22362 ft | 354 kts | 299° |
| 2026-05-05 01:52 | 25.34974 | -79.65852 | 21843 ft | 351 kts | 300° |
| 2026-05-05 01:52 | 25.36293 | -79.68067 | 21309 ft | 338 kts | 299° |
| 2026-05-05 01:52 | 25.37569 | -79.70218 | 20776 ft | 333 kts | 299° |
| 2026-05-05 01:53 | 25.38827 | -79.72342 | 20248 ft | 329 kts | 299° |
| 2026-05-05 01:53 | 25.40107 | -79.74435 | 19730 ft | 327 kts | 301° |
| 2026-05-05 01:53 | 25.41415 | -79.76484 | 19223 ft | 324 kts | 301° |
| 2026-05-05 01:53 | 25.42730 | -79.78506 | 18734 ft | 325 kts | 301° |
| 2026-05-05 01:54 | 25.44056 | -79.80543 | 18170 ft | 327 kts | 301° |
| 2026-05-05 01:54 | 25.45383 | -79.82591 | 17525 ft | 329 kts | 301° |
| 2026-05-05 01:54 | 25.46717 | -79.84655 | 16895 ft | 330 kts | 301° |
| 2026-05-05 01:54 | 25.48056 | -79.86737 | 16276 ft | 332 kts | 301° |
| 2026-05-05 01:55 | 25.49398 | -79.88830 | 15667 ft | 333 kts | 301° |
| 2026-05-05 01:55 | 25.50737 | -79.90923 | 15075 ft | 334 kts | 301° |
| 2026-05-05 01:55 | 25.52066 | -79.93003 | 14487 ft | 335 kts | 301° |
| 2026-05-05 01:55 | 25.53431 | -79.95137 | 13922 ft | 336 kts | 301° |
| 2026-05-05 01:56 | 25.54769 | -79.97225 | 13298 ft | 336 kts | 302° |
| 2026-05-05 01:56 | 25.56127 | -79.99343 | 12661 ft | 337 kts | 302° |
| 2026-05-05 01:56 | 25.57480 | -80.01457 | 12038 ft | 337 kts | 302° |
| 2026-05-05 01:56 | 25.58834 | -80.03575 | 11426 ft | 337 kts | 302° |
| 2026-05-05 01:57 | 25.60186 | -80.05692 | 10826 ft | 336 kts | 302° |
| 2026-05-05 01:57 | 25.61534 | -80.07809 | 10247 ft | 337 kts | 302° |
| 2026-05-05 01:57 | 25.62883 | -80.09930 | 9640 ft | 336 kts | 303° |
| 2026-05-05 01:57 | 25.64230 | -80.12044 | 9129 ft | 333 kts | 303° |
| 2026-05-05 01:58 | 25.65477 | -80.14086 | 9002 ft | 305 kts | 296° |
| 2026-05-05 01:58 | 25.66365 | -80.16113 | 8753 ft | 284 kts | 293° |
| 2026-05-05 01:58 | 25.67194 | -80.18053 | 8320 ft | 274 kts | 293° |
| 2026-05-05 01:58 | 25.68006 | -80.19958 | 8185 ft | 275 kts | 293° |
| 2026-05-05 01:59 | 25.68824 | -80.21882 | 7954 ft | 276 kts | 293° |
| 2026-05-05 01:59 | 25.69641 | -80.23813 | 7682 ft | 277 kts | 293° |
| 2026-05-05 01:59 | 25.70457 | -80.25738 | 7400 ft | 275 kts | 293° |
| 2026-05-05 01:59 | 25.71055 | -80.27725 | 7122 ft | 271 kts | 279° |
| 2026-05-05 02:00 | 25.71173 | -80.29799 | 6836 ft | 269 kts | 266° |
| 2026-05-05 02:00 | 25.71067 | -80.31870 | 6571 ft | 269 kts | 266° |
| 2026-05-05 02:00 | 25.70964 | -80.33929 | 6298 ft | 267 kts | 266° |
| 2026-05-05 02:00 | 25.70873 | -80.35997 | 5942 ft | 269 kts | 267° |
| 2026-05-05 02:01 | 25.70797 | -80.38068 | 5646 ft | 267 kts | 267° |
| 2026-05-05 02:01 | 25.70705 | -80.40090 | 5405 ft | 267 kts | 266° |
| 2026-05-05 02:01 | 25.70587 | -80.42136 | 5163 ft | 268 kts | 266° |
| 2026-05-05 02:01 | 25.70445 | -80.44234 | 4934 ft | 266 kts | 265° |
| 2026-05-05 02:02 | 25.70294 | -80.46255 | 4855 ft | 268 kts | 265° |
| 2026-05-05 02:02 | 25.70129 | -80.48313 | 4759 ft | 267 kts | 264° |
| 2026-05-05 02:02 | 25.69957 | -80.50365 | 4669 ft | 268 kts | 265° |
| 2026-05-05 02:02 | 25.70078 | -80.52381 | 4548 ft | 258 kts | 286° |
| 2026-05-05 02:03 | 25.70860 | -80.54113 | 4467 ft | 248 kts | 309° |
| 2026-05-05 02:03 | 25.72126 | -80.55323 | 4359 ft | 237 kts | 332° |
| 2026-05-05 02:03 | 25.73637 | -80.55917 | 4229 ft | 226 kts | 348° |
| 2026-05-05 02:03 | 25.75144 | -80.56302 | 4119 ft | 220 kts | 348° |
| 2026-05-05 02:04 | 25.76642 | -80.56686 | 4022 ft | 220 kts | 348° |
| 2026-05-05 02:04 | 25.78142 | -80.56978 | 4009 ft | 219 kts | 4° |
| 2026-05-05 02:04 | 25.79497 | -80.56352 | 4014 ft | 214 kts | 48° |
| 2026-05-05 02:04 | 25.80094 | -80.54894 | 4017 ft | 212 kts | 89° |
| 2026-05-05 02:05 | 25.79753 | -80.53331 | 4017 ft | 212 kts | 115° |
| 2026-05-05 02:05 | 25.79126 | -80.51844 | 4016 ft | 214 kts | 115° |
| 2026-05-05 02:05 | 25.78509 | -80.50388 | 4011 ft | 202 kts | 115° |
| 2026-05-05 02:05 | 25.77978 | -80.48990 | 4008 ft | 199 kts | 102° |
| 2026-05-05 02:06 | 25.77901 | -80.47960 | 4019 ft | 199 kts | 88° |
| 2026-05-05 02:06 | 25.77989 | -80.46008 | 4036 ft | 180 kts | 87° |
| 2026-05-05 02:06 | 25.78030 | -80.45097 | 4016 ft | 170 kts | 88° |
| 2026-05-05 02:06 | 25.78091 | -80.43466 | 4004 ft | 151 kts | 94° |
| 2026-05-05 02:07 | 25.77662 | -80.42472 | 3988 ft | 146 kts | 144° |
| 2026-05-05 02:07 | 25.76697 | -80.42191 | 4127 ft | 147 kts | 174° |
| 2026-05-05 02:07 | 25.75574 | -80.42167 | 4106 ft | 185 kts | 178° |
| 2026-05-05 02:07 | 25.74653 | -80.42260 | 4014 ft | 205 kts | 193° |
| 2026-05-05 02:08 | 25.73272 | -80.42851 | 4024 ft | 217 kts | 205° |
| 2026-05-05 02:08 | 25.71946 | -80.43663 | 4016 ft | 219 kts | 215° |
| 2026-05-05 02:08 | 25.71011 | -80.44962 | 4016 ft | 219 kts | 251° |
| 2026-05-05 02:08 | 25.70665 | -80.46593 | 4020 ft | 220 kts | 261° |
| 2026-05-05 02:09 | 25.70452 | -80.48272 | 4018 ft | 221 kts | 262° |
| 2026-05-05 02:09 | 25.70259 | -80.49965 | 3988 ft | 222 kts | 263° |
| 2026-05-05 02:09 | 25.70069 | -80.51658 | 3757 ft | 221 kts | 263° |
| 2026-05-05 02:09 | 25.69883 | -80.53356 | 3538 ft | 223 kts | 263° |
| 2026-05-05 02:10 | 25.69703 | -80.55071 | 3320 ft | 222 kts | 262° |
| 2026-05-05 02:10 | 25.69529 | -80.56761 | 3113 ft | 220 kts | 263° |
| 2026-05-05 02:10 | 25.69355 | -80.58450 | 3010 ft | 221 kts | 263° |
| 2026-05-05 02:10 | 25.69276 | -80.60144 | 3007 ft | 221 kts | 279° |
| 2026-05-05 02:11 | 25.69824 | -80.61712 | 3012 ft | 219 kts | 308° |
| 2026-05-05 02:11 | 25.70975 | -80.62781 | 3002 ft | 217 kts | 338° |
| 2026-05-05 02:11 | 25.72435 | -80.63102 | 3007 ft | 214 kts | 7° |
| 2026-05-05 02:11 | 25.73833 | -80.62616 | 3006 ft | 210 kts | 36° |
| 2026-05-05 02:12 | 25.74839 | -80.61475 | 3013 ft | 207 kts | 63° |
| 2026-05-05 02:12 | 25.75636 | -80.58423 | 3012 ft | 206 kts | 77° |
| 2026-05-05 02:12 | 25.75974 | -80.56878 | 3014 ft | 206 kts | 77° |
| 2026-05-05 02:13 | 25.76314 | -80.55327 | 3015 ft | 206 kts | 77° |
| 2026-05-05 02:13 | 25.76652 | -80.53782 | 3012 ft | 207 kts | 77° |
| 2026-05-05 02:13 | 25.76991 | -80.52244 | 3014 ft | 205 kts | 77° |
| 2026-05-05 02:13 | 25.77331 | -80.50707 | 3011 ft | 205 kts | 77° |
| 2026-05-05 02:14 | 25.77668 | -80.49164 | 2999 ft | 206 kts | 78° |
| 2026-05-05 02:14 | 25.77885 | -80.47615 | 2840 ft | 200 kts | 83° |
| 2026-05-05 02:14 | 25.77989 | -80.46091 | 2633 ft | 195 kts | 87° |
| 2026-05-05 02:14 | 25.78053 | -80.44628 | 2367 ft | 183 kts | 87° |
| 2026-05-05 02:15 | 25.78111 | -80.43268 | 2128 ft | 169 kts | 88° |
| 2026-05-05 02:15 | 25.78163 | -80.42031 | 1929 ft | 152 kts | 86° |
| 2026-05-05 02:15 | 25.78210 | -80.40924 | 1743 ft | 140 kts | 86° |
| 2026-05-05 02:15 | 25.78255 | -80.39874 | 1585 ft | 134 kts | 86° |
| 2026-05-05 02:16 | 25.78298 | -80.38852 | 1395 ft | 133 kts | 87° |
| 2026-05-05 02:16 | 25.78342 | -80.37824 | 1220 ft | 133 kts | 86° |
| 2026-05-05 02:16 | 25.78385 | -80.36810 | 1050 ft | 131 kts | 86° |
| 2026-05-05 02:16 | 25.78427 | -80.35805 | 878 ft | 131 kts | 86° |
| 2026-05-05 02:17 | 25.78470 | -80.34789 | 722 ft | 131 kts | 85° |
| 2026-05-05 02:17 | 25.78513 | -80.33772 | 541 ft | 135 kts | 87° |
| 2026-05-05 02:17 | 25.78556 | -80.32736 | 370 ft | 133 kts | 85° |
| 2026-05-05 02:17 | 25.78599 | -80.31715 | 189 ft | 132 kts | 85° |
| 2026-05-05 02:18 | 25.78642 | -80.30694 | 27 ft | 131 kts | 86° |
| 2026-05-05 02:18 | 25.78682 | -80.29883 | 19 ft | 66 kts | 89° |
| 2026-05-05 02:18 | 25.78691 | -80.29563 | 20 ft | 44 kts | 88° |
| 2026-05-05 02:18 | 25.78723 | -80.29264 | 22 ft | 31 kts | 65° |
| 2026-05-05 02:19 | 25.78812 | -80.29126 | 20 ft | 0 kts | 64° |
| 2026-05-05 02:21 | 25.78813 | -80.29124 | 20 ft | 2 kts | 65° |
| 2026-05-05 02:22 | 25.78823 | -80.29091 | 20 ft | 6 kts | 83° |
| 2026-05-05 02:22 | 25.78824 | -80.29038 | 20 ft | 8 kts | 88° |
| 2026-05-05 02:22 | 25.78838 | -80.28966 | 20 ft | 11 kts | 75° |
| 2026-05-05 02:22 | 25.78876 | -80.28880 | 19 ft | 14 kts | 36° |
| 2026-05-05 02:23 | 25.78986 | -80.28873 | 18 ft | 18 kts | 356° |
| 2026-05-05 02:23 | 25.79121 | -80.28882 | 16 ft | 14 kts | 355° |
| 2026-05-05 02:23 | 25.79126 | -80.28883 | 16 ft | 0 kts | 356° |
| 2026-05-05 02:23 | 25.79162 | -80.28884 | 16 ft | 11 kts | 0° |
| 2026-05-05 02:24 | 25.79251 | -80.28882 | 17 ft | 14 kts | 358° |
| 2026-05-05 02:24 | 25.79352 | -80.28889 | 19 ft | 15 kts | 358° |
| 2026-05-05 02:24 | 25.79403 | -80.28888 | 19 ft | 2 kts | 12° |
| 2026-05-05 02:24 | 25.79421 | -80.28876 | 19 ft | 4 kts | 40° |
| 2026-05-05 02:25 | 25.79430 | -80.28857 | 19 ft | 0 kts | 69° |
| 2026-05-05 02:28 | 25.79431 | -80.28856 | 19 ft | 1 kts | 69° |
| 2026-05-05 02:28 | 25.79432 | -80.28830 | 19 ft | 6 kts | 97° |
| 2026-05-05 02:28 | 25.79408 | -80.28778 | 18 ft | 10 kts | 120° |
| 2026-05-05 02:29 | 25.79369 | -80.28701 | 18 ft | 13 kts | 120° |
| 2026-05-05 02:29 | 25.79362 | -80.28687 | 18 ft | 0 kts | 120° |
| 2026-05-05 02:30 | 25.79361 | -80.28687 | 18 ft | 0 kts | 120° |
| 2026-05-05 02:30 | 25.79356 | -80.28677 | 18 ft | 3 kts | 120° |
| 2026-05-05 02:30 | 25.79341 | -80.28646 | 19 ft | 5 kts | 118° |
| 2026-05-05 02:30 | 25.79337 | -80.28598 | 20 ft | 7 kts | 72° |
| 2026-05-05 02:31 | 25.79379 | -80.28570 | 21 ft | 8 kts | 1° |
| 2026-05-05 02:31 | 25.79448 | -80.28571 | 21 ft | 12 kts | 359° |
| 2026-05-05 02:31 | 25.79540 | -80.28580 | 21 ft | 15 kts | 350° |
| 2026-05-05 02:31 | 25.79590 | -80.28655 | 23 ft | 14 kts | 261° |
| 2026-05-05 02:32 | 25.79561 | -80.28766 | 23 ft | 16 kts | 248° |
| 2026-05-05 02:32 | 25.79452 | -80.28802 | 20 ft | 20 kts | 171° |
| 2026-05-05 02:32 | 25.79357 | -80.28683 | 18 ft | 23 kts | 119° |
| 2026-05-05 02:32 | 25.79339 | -80.28560 | 21 ft | 0 kts | 67° |
| 2026-05-05 02:33 | 25.79340 | -80.28557 | 21 ft | 0 kts | 66° |
| 2026-05-05 02:33 | 25.79341 | -80.28556 | 21 ft | 1 kts | 60° |
| 2026-05-05 02:34 | 25.79342 | -80.28555 | 21 ft | 0 kts | 60° |
| 2026-05-05 02:34 | 25.79342 | -80.28551 | 22 ft | 1 kts | 73° |
| 2026-05-05 02:35 | 25.79340 | -80.28544 | 22 ft | 0 kts | 112° |
| 2026-05-05 02:35 | 25.79338 | -80.28544 | 22 ft | 1 kts | 133° |
| 2026-05-05 02:35 | 25.79298 | -80.28537 | 22 ft | 8 kts | 162° |
| 2026-05-05 02:35 | 25.79255 | -80.28486 | 23 ft | 10 kts | 122° |
| 2026-05-05 02:36 | 25.79233 | -80.28404 | 23 ft | 12 kts | 83° |
| 2026-05-05 02:36 | 25.79286 | -80.28323 | 23 ft | 15 kts | 43° |
| 2026-05-05 02:36 | 25.79384 | -80.28262 | 22 ft | 18 kts | 10° |
| 2026-05-05 02:36 | 25.79456 | -80.28254 | 22 ft | 2 kts | 13° |
| 2026-05-05 02:37 | 25.79474 | -80.28223 | 25 ft | 0 kts | 72° |
| 2026-05-05 02:37 | 25.79479 | -80.28206 | 24 ft | 0 kts | 73° |
| 2026-05-05 02:37 | 25.79483 | -80.28190 | 23 ft | 2 kts | 71° |
| 2026-05-05 02:37 | 25.79486 | -80.28183 | 23 ft | 0 kts | 71° |